sensor_id;sensor_type;location;lat;lon;timestamp;P1;durP1;ratioP1;P2;durP2;ratioP2
40591;SDS011;26301;42.832;23.918;2022-09-09T00:04:41;11.15;;;7.60;;
40591;SDS011;26301;42.832;23.918;2022-09-09T00:07:16;7.95;;;6.80;;
40591;SDS011;26301;42.832;23.918;2022-09-09T00:10:30;8.82;;;7.60;;
40591;SDS011;26301;42.832;23.918;2022-09-09T00:18:40;12.88;;;7.63;;
40591;SDS011;26301;42.832;23.918;2022-09-09T00:21:28;9.73;;;7.20;;
40591;SDS011;26301;42.832;23.918;2022-09-09T00:23:58;8.80;;;7.28;;
40591;SDS011;26301;42.832;23.918;2022-09-09T00:26:31;10.05;;;7.13;;
40591;SDS011;26301;42.832;23.918;2022-09-09T00:29:05;10.57;;;7.03;;
40591;SDS011;26301;42.832;23.918;2022-09-09T00:31:57;8.63;;;7.40;;
40591;SDS011;26301;42.832;23.918;2022-09-09T00:34:30;6.80;;;6.10;;
40591;SDS011;26301;42.832;23.918;2022-09-09T00:36:59;9.48;;;7.00;;
40591;SDS011;26301;42.832;23.918;2022-09-09T00:47:45;10.40;;;7.03;;
40591;SDS011;26301;42.832;23.918;2022-09-09T00:53:39;8.77;;;7.15;;
40591;SDS011;26301;42.832;23.918;2022-09-09T00:56:23;8.63;;;6.78;;
40591;SDS011;26301;42.832;23.918;2022-09-09T01:02:01;9.77;;;7.22;;
40591;SDS011;26301;42.832;23.918;2022-09-09T01:04:38;8.10;;;6.70;;
40591;SDS011;26301;42.832;23.918;2022-09-09T01:07:12;9.15;;;6.82;;
40591;SDS011;26301;42.832;23.918;2022-09-09T01:15:12;10.32;;;7.30;;
40591;SDS011;26301;42.832;23.918;2022-09-09T01:18:06;8.93;;;7.53;;
40591;SDS011;26301;42.832;23.918;2022-09-09T01:28:55;11.60;;;7.40;;
40591;SDS011;26301;42.832;23.918;2022-09-09T01:34:09;9.45;;;7.28;;
40591;SDS011;26301;42.832;23.918;2022-09-09T01:36:46;7.80;;;6.78;;
40591;SDS011;26301;42.832;23.918;2022-09-09T01:39:16;12.85;;;7.63;;
40591;SDS011;26301;42.832;23.918;2022-09-09T01:41:44;9.18;;;7.63;;
40591;SDS011;26301;42.832;23.918;2022-09-09T01:44:10;13.48;;;8.02;;
40591;SDS011;26301;42.832;23.918;2022-09-09T01:46:36;11.55;;;8.88;;
40591;SDS011;26301;42.832;23.918;2022-09-09T01:49:03;9.52;;;7.85;;
40591;SDS011;26301;42.832;23.918;2022-09-09T01:51:32;8.75;;;7.68;;
40591;SDS011;26301;42.832;23.918;2022-09-09T01:54:00;11.60;;;8.32;;
40591;SDS011;26301;42.832;23.918;2022-09-09T01:59:25;10.63;;;8.35;;
40591;SDS011;26301;42.832;23.918;2022-09-09T02:02:19;10.00;;;9.00;;
40591;SDS011;26301;42.832;23.918;2022-09-09T02:04:56;8.93;;;7.65;;
40591;SDS011;26301;42.832;23.918;2022-09-09T02:07:48;10.77;;;8.30;;
40591;SDS011;26301;42.832;23.918;2022-09-09T02:10:21;10.68;;;8.02;;
40591;SDS011;26301;42.832;23.918;2022-09-09T02:13:27;10.43;;;7.80;;
40591;SDS011;26301;42.832;23.918;2022-09-09T02:18:16;12.48;;;8.07;;
40591;SDS011;26301;42.832;23.918;2022-09-09T02:20:50;11.75;;;8.20;;
40591;SDS011;26301;42.832;23.918;2022-09-09T02:23:17;11.82;;;8.73;;
40591;SDS011;26301;42.832;23.918;2022-09-09T02:25:48;8.70;;;7.88;;
40591;SDS011;26301;42.832;23.918;2022-09-09T02:28:17;11.77;;;8.90;;
40591;SDS011;26301;42.832;23.918;2022-09-09T02:30:46;9.88;;;8.82;;
40591;SDS011;26301;42.832;23.918;2022-09-09T02:33:22;10.77;;;8.10;;
40591;SDS011;26301;42.832;23.918;2022-09-09T02:35:52;11.40;;;8.40;;
40591;SDS011;26301;42.832;23.918;2022-09-09T02:38:21;9.93;;;8.10;;
40591;SDS011;26301;42.832;23.918;2022-09-09T02:40:51;15.73;;;9.05;;
40591;SDS011;26301;42.832;23.918;2022-09-09T02:43:17;10.13;;;8.93;;
40591;SDS011;26301;42.832;23.918;2022-09-09T02:46:08;9.18;;;7.97;;
40591;SDS011;26301;42.832;23.918;2022-09-09T02:48:34;11.75;;;8.65;;
40591;SDS011;26301;42.832;23.918;2022-09-09T02:51:12;14.30;;;8.65;;
40591;SDS011;26301;42.832;23.918;2022-09-09T02:56:44;9.15;;;8.05;;
40591;SDS011;26301;42.832;23.918;2022-09-09T02:59:15;10.15;;;7.93;;
40591;SDS011;26301;42.832;23.918;2022-09-09T03:01:43;12.57;;;7.70;;
40591;SDS011;26301;42.832;23.918;2022-09-09T03:04:10;10.13;;;7.88;;
40591;SDS011;26301;42.832;23.918;2022-09-09T03:06:36;11.40;;;7.68;;
40591;SDS011;26301;42.832;23.918;2022-09-09T03:09:03;9.93;;;7.57;;
40591;SDS011;26301;42.832;23.918;2022-09-09T03:11:29;9.50;;;7.70;;
40591;SDS011;26301;42.832;23.918;2022-09-09T03:13:55;15.02;;;7.50;;
40591;SDS011;26301;42.832;23.918;2022-09-09T03:16:22;9.63;;;7.22;;
40591;SDS011;26301;42.832;23.918;2022-09-09T03:18:49;9.68;;;7.95;;
40591;SDS011;26301;42.832;23.918;2022-09-09T03:21:15;8.57;;;7.55;;
40591;SDS011;26301;42.832;23.918;2022-09-09T03:23:43;10.25;;;7.75;;
40591;SDS011;26301;42.832;23.918;2022-09-09T03:26:10;11.70;;;8.23;;
40591;SDS011;26301;42.832;23.918;2022-09-09T03:28:36;12.80;;;8.65;;
40591;SDS011;26301;42.832;23.918;2022-09-09T03:31:03;10.80;;;8.00;;
40591;SDS011;26301;42.832;23.918;2022-09-09T03:33:30;11.50;;;8.60;;
40591;SDS011;26301;42.832;23.918;2022-09-09T03:35:57;9.82;;;7.97;;
40591;SDS011;26301;42.832;23.918;2022-09-09T03:38:24;9.15;;;7.15;;
40591;SDS011;26301;42.832;23.918;2022-09-09T03:40:54;8.88;;;7.30;;
40591;SDS011;26301;42.832;23.918;2022-09-09T03:43:22;9.13;;;7.22;;
40591;SDS011;26301;42.832;23.918;2022-09-09T03:45:49;12.45;;;7.25;;
40591;SDS011;26301;42.832;23.918;2022-09-09T03:48:16;12.48;;;7.68;;
40591;SDS011;26301;42.832;23.918;2022-09-09T03:50:46;8.93;;;6.88;;
40591;SDS011;26301;42.832;23.918;2022-09-09T03:55:48;9.95;;;7.35;;
40591;SDS011;26301;42.832;23.918;2022-09-09T03:58:17;9.95;;;7.30;;
40591;SDS011;26301;42.832;23.918;2022-09-09T04:00:54;9.93;;;7.60;;
40591;SDS011;26301;42.832;23.918;2022-09-09T04:03:24;8.63;;;7.32;;
40591;SDS011;26301;42.832;23.918;2022-09-09T04:05:51;12.80;;;8.45;;
40591;SDS011;26301;42.832;23.918;2022-09-09T04:08:19;13.52;;;8.00;;
40591;SDS011;26301;42.832;23.918;2022-09-09T04:10:46;9.35;;;7.72;;
40591;SDS011;26301;42.832;23.918;2022-09-09T04:13:14;13.40;;;8.13;;
40591;SDS011;26301;42.832;23.918;2022-09-09T04:15:43;9.63;;;8.60;;
40591;SDS011;26301;42.832;23.918;2022-09-09T04:18:15;10.65;;;8.85;;
40591;SDS011;26301;42.832;23.918;2022-09-09T04:20:41;13.18;;;7.80;;
40591;SDS011;26301;42.832;23.918;2022-09-09T04:23:10;12.25;;;8.05;;
40591;SDS011;26301;42.832;23.918;2022-09-09T04:25:37;11.85;;;8.35;;
40591;SDS011;26301;42.832;23.918;2022-09-09T04:28:03;14.57;;;7.85;;
40591;SDS011;26301;42.832;23.918;2022-09-09T04:30:29;10.38;;;7.68;;
40591;SDS011;26301;42.832;23.918;2022-09-09T04:32:56;10.60;;;7.82;;
40591;SDS011;26301;42.832;23.918;2022-09-09T04:35:22;9.90;;;7.45;;
40591;SDS011;26301;42.832;23.918;2022-09-09T04:37:48;14.70;;;8.38;;
40591;SDS011;26301;42.832;23.918;2022-09-09T04:40:15;10.68;;;7.68;;
40591;SDS011;26301;42.832;23.918;2022-09-09T04:42:41;12.40;;;8.23;;
40591;SDS011;26301;42.832;23.918;2022-09-09T04:45:09;10.55;;;8.05;;
40591;SDS011;26301;42.832;23.918;2022-09-09T04:47:36;15.73;;;8.70;;
40591;SDS011;26301;42.832;23.918;2022-09-09T04:50:04;11.77;;;7.75;;
40591;SDS011;26301;42.832;23.918;2022-09-09T04:52:33;13.02;;;8.20;;
40591;SDS011;26301;42.832;23.918;2022-09-09T04:55:05;13.70;;;7.82;;
40591;SDS011;26301;42.832;23.918;2022-09-09T04:57:34;10.65;;;8.00;;
40591;SDS011;26301;42.832;23.918;2022-09-09T05:00:01;11.65;;;7.78;;
40591;SDS011;26301;42.832;23.918;2022-09-09T05:02:28;13.55;;;8.43;;
40591;SDS011;26301;42.832;23.918;2022-09-09T05:04:55;9.77;;;7.60;;
40591;SDS011;26301;42.832;23.918;2022-09-09T05:07:22;11.50;;;8.00;;
40591;SDS011;26301;42.832;23.918;2022-09-09T05:09:48;12.95;;;7.25;;
40591;SDS011;26301;42.832;23.918;2022-09-09T05:12:15;12.93;;;7.60;;
40591;SDS011;26301;42.832;23.918;2022-09-09T05:14:42;10.00;;;7.35;;
40591;SDS011;26301;42.832;23.918;2022-09-09T05:17:08;10.20;;;7.00;;
40591;SDS011;26301;42.832;23.918;2022-09-09T05:19:35;9.07;;;7.03;;
40591;SDS011;26301;42.832;23.918;2022-09-09T05:22:03;7.93;;;6.80;;
40591;SDS011;26301;42.832;23.918;2022-09-09T05:24:29;14.43;;;6.78;;
40591;SDS011;26301;42.832;23.918;2022-09-09T05:26:58;8.15;;;6.40;;
40591;SDS011;26301;42.832;23.918;2022-09-09T05:29:26;12.05;;;6.95;;
40591;SDS011;26301;42.832;23.918;2022-09-09T05:31:53;8.05;;;5.40;;
40591;SDS011;26301;42.832;23.918;2022-09-09T05:34:19;10.13;;;6.10;;
40591;SDS011;26301;42.832;23.918;2022-09-09T05:36:45;6.30;;;5.60;;
40591;SDS011;26301;42.832;23.918;2022-09-09T05:39:12;8.63;;;6.30;;
40591;SDS011;26301;42.832;23.918;2022-09-09T05:41:38;12.95;;;6.30;;
40591;SDS011;26301;42.832;23.918;2022-09-09T05:44:04;11.65;;;6.00;;
40591;SDS011;26301;42.832;23.918;2022-09-09T05:46:31;13.43;;;6.07;;
40591;SDS011;26301;42.832;23.918;2022-09-09T05:48:57;9.98;;;5.60;;
40591;SDS011;26301;42.832;23.918;2022-09-09T05:51:26;8.98;;;5.45;;
40591;SDS011;26301;42.832;23.918;2022-09-09T05:53:55;10.63;;;5.50;;
40591;SDS011;26301;42.832;23.918;2022-09-09T05:56:25;7.15;;;5.20;;
40591;SDS011;26301;42.832;23.918;2022-09-09T05:58:54;9.30;;;5.03;;
40591;SDS011;26301;42.832;23.918;2022-09-09T06:01:37;5.70;;;5.07;;
40591;SDS011;26301;42.832;23.918;2022-09-09T06:04:07;13.30;;;6.22;;
40591;SDS011;26301;42.832;23.918;2022-09-09T06:09:16;7.10;;;4.78;;
40591;SDS011;26301;42.832;23.918;2022-09-09T06:11:43;9.27;;;5.35;;
40591;SDS011;26301;42.832;23.918;2022-09-09T06:14:10;6.00;;;4.70;;
40591;SDS011;26301;42.832;23.918;2022-09-09T06:16:37;10.43;;;4.78;;
40591;SDS011;26301;42.832;23.918;2022-09-09T06:19:03;7.57;;;4.90;;
40591;SDS011;26301;42.832;23.918;2022-09-09T06:21:30;6.80;;;4.93;;
40591;SDS011;26301;42.832;23.918;2022-09-09T06:23:59;5.80;;;4.70;;
40591;SDS011;26301;42.832;23.918;2022-09-09T06:26:30;8.57;;;4.38;;
40591;SDS011;26301;42.832;23.918;2022-09-09T06:29:02;5.88;;;4.72;;
40591;SDS011;26301;42.832;23.918;2022-09-09T06:31:30;6.13;;;4.35;;
40591;SDS011;26301;42.832;23.918;2022-09-09T06:33:59;5.43;;;4.05;;
40591;SDS011;26301;42.832;23.918;2022-09-09T06:36:26;7.10;;;4.38;;
40591;SDS011;26301;42.832;23.918;2022-09-09T06:39:02;7.80;;;4.30;;
40591;SDS011;26301;42.832;23.918;2022-09-09T06:41:32;6.80;;;4.38;;
40591;SDS011;26301;42.832;23.918;2022-09-09T06:43:59;9.25;;;4.10;;
40591;SDS011;26301;42.832;23.918;2022-09-09T06:46:27;10.30;;;4.93;;
40591;SDS011;26301;42.832;23.918;2022-09-09T06:48:57;12.27;;;4.82;;
40591;SDS011;26301;42.832;23.918;2022-09-09T06:51:29;10.80;;;3.28;;
40591;SDS011;26301;42.832;23.918;2022-09-09T06:53:57;6.07;;;3.97;;
40591;SDS011;26301;42.832;23.918;2022-09-09T06:56:26;11.73;;;4.00;;
40591;SDS011;26301;42.832;23.918;2022-09-09T06:58:57;8.75;;;4.30;;
40591;SDS011;26301;42.832;23.918;2022-09-09T07:01:27;6.50;;;3.63;;
40591;SDS011;26301;42.832;23.918;2022-09-09T07:03:56;6.68;;;3.00;;
40591;SDS011;26301;42.832;23.918;2022-09-09T07:06:45;6.35;;;3.90;;
40591;SDS011;26301;42.832;23.918;2022-09-09T07:09:12;11.00;;;4.13;;
40591;SDS011;26301;42.832;23.918;2022-09-09T07:11:43;6.05;;;3.28;;
40591;SDS011;26301;42.832;23.918;2022-09-09T07:14:14;8.90;;;4.07;;
40591;SDS011;26301;42.832;23.918;2022-09-09T07:16:41;7.78;;;3.85;;
40591;SDS011;26301;42.832;23.918;2022-09-09T07:19:14;6.55;;;3.72;;
40591;SDS011;26301;42.832;23.918;2022-09-09T07:21:41;7.25;;;3.40;;
40591;SDS011;26301;42.832;23.918;2022-09-09T07:24:08;7.43;;;3.70;;
40591;SDS011;26301;42.832;23.918;2022-09-09T07:26:41;8.50;;;3.53;;
40591;SDS011;26301;42.832;23.918;2022-09-09T07:29:10;6.10;;;3.55;;
40591;SDS011;26301;42.832;23.918;2022-09-09T07:31:39;4.60;;;3.17;;
40591;SDS011;26301;42.832;23.918;2022-09-09T07:34:05;7.45;;;2.95;;
40591;SDS011;26301;42.832;23.918;2022-09-09T07:36:38;6.80;;;3.10;;
40591;SDS011;26301;42.832;23.918;2022-09-09T07:39:12;6.82;;;3.22;;
40591;SDS011;26301;42.832;23.918;2022-09-09T07:41:40;6.43;;;3.35;;
40591;SDS011;26301;42.832;23.918;2022-09-09T07:44:11;5.72;;;3.40;;
40591;SDS011;26301;42.832;23.918;2022-09-09T07:46:39;6.72;;;3.60;;
40591;SDS011;26301;42.832;23.918;2022-09-09T07:49:08;9.02;;;3.70;;
40591;SDS011;26301;42.832;23.918;2022-09-09T07:51:37;11.25;;;3.80;;
40591;SDS011;26301;42.832;23.918;2022-09-09T07:54:07;8.75;;;3.55;;
40591;SDS011;26301;42.832;23.918;2022-09-09T07:56:35;9.02;;;3.70;;
40591;SDS011;26301;42.832;23.918;2022-09-09T07:59:02;9.43;;;3.40;;
40591;SDS011;26301;42.832;23.918;2022-09-09T08:01:32;6.28;;;3.42;;
40591;SDS011;26301;42.832;23.918;2022-09-09T08:04:07;7.38;;;4.47;;
40591;SDS011;26301;42.832;23.918;2022-09-09T08:06:36;9.85;;;4.10;;
40591;SDS011;26301;42.832;23.918;2022-09-09T08:09:05;13.68;;;3.30;;
40591;SDS011;26301;42.832;23.918;2022-09-09T08:11:32;6.55;;;3.40;;
40591;SDS011;26301;42.832;23.918;2022-09-09T08:13:58;8.02;;;3.30;;
40591;SDS011;26301;42.832;23.918;2022-09-09T08:16:25;7.95;;;3.13;;
40591;SDS011;26301;42.832;23.918;2022-09-09T08:18:55;5.45;;;3.30;;
40591;SDS011;26301;42.832;23.918;2022-09-09T08:21:23;7.18;;;3.63;;
40591;SDS011;26301;42.832;23.918;2022-09-09T08:23:53;6.68;;;3.08;;
40591;SDS011;26301;42.832;23.918;2022-09-09T08:26:22;6.55;;;3.30;;
40591;SDS011;26301;42.832;23.918;2022-09-09T08:28:50;4.68;;;3.30;;
40591;SDS011;26301;42.832;23.918;2022-09-09T08:31:19;7.03;;;3.78;;
40591;SDS011;26301;42.832;23.918;2022-09-09T08:33:50;8.50;;;3.45;;
40591;SDS011;26301;42.832;23.918;2022-09-09T08:36:20;9.93;;;3.45;;
40591;SDS011;26301;42.832;23.918;2022-09-09T08:38:48;8.80;;;3.75;;
40591;SDS011;26301;42.832;23.918;2022-09-09T08:41:22;12.65;;;4.72;;
40591;SDS011;26301;42.832;23.918;2022-09-09T08:49:45;8.38;;;3.20;;
40591;SDS011;26301;42.832;23.918;2022-09-09T08:52:30;14.18;;;3.75;;
40591;SDS011;26301;42.832;23.918;2022-09-09T08:57:49;9.38;;;3.95;;
40591;SDS011;26301;42.832;23.918;2022-09-09T09:00:18;11.05;;;4.25;;
40591;SDS011;26301;42.832;23.918;2022-09-09T09:08:22;9.45;;;3.45;;
40591;SDS011;26301;42.832;23.918;2022-09-09T09:10:51;8.55;;;3.35;;
40591;SDS011;26301;42.832;23.918;2022-09-09T09:18:48;8.02;;;3.20;;
40591;SDS011;26301;42.832;23.918;2022-09-09T09:23:57;8.20;;;3.10;;
40591;SDS011;26301;42.832;23.918;2022-09-09T09:26:26;7.55;;;3.70;;
40591;SDS011;26301;42.832;23.918;2022-09-09T09:29:14;13.93;;;3.22;;
40591;SDS011;26301;42.832;23.918;2022-09-09T09:31:45;15.00;;;3.88;;
40591;SDS011;26301;42.832;23.918;2022-09-09T09:34:17;9.55;;;3.20;;
40591;SDS011;26301;42.832;23.918;2022-09-09T09:36:45;6.50;;;3.15;;
40591;SDS011;26301;42.832;23.918;2022-09-09T09:39:25;7.43;;;2.97;;
40591;SDS011;26301;42.832;23.918;2022-09-09T09:41:53;10.57;;;3.60;;
40591;SDS011;26301;42.832;23.918;2022-09-09T09:44:27;8.18;;;3.10;;
40591;SDS011;26301;42.832;23.918;2022-09-09T09:47:10;7.78;;;3.40;;
40591;SDS011;26301;42.832;23.918;2022-09-09T09:52:23;8.65;;;3.35;;
40591;SDS011;26301;42.832;23.918;2022-09-09T09:54:57;7.25;;;2.97;;
40591;SDS011;26301;42.832;23.918;2022-09-09T09:57:29;5.93;;;3.10;;
40591;SDS011;26301;42.832;23.918;2022-09-09T10:00:15;7.28;;;2.75;;
40591;SDS011;26301;42.832;23.918;2022-09-09T10:02:44;7.63;;;3.08;;
40591;SDS011;26301;42.832;23.918;2022-09-09T10:05:21;9.07;;;3.05;;
40591;SDS011;26301;42.832;23.918;2022-09-09T10:14:11;8.05;;;3.13;;
40591;SDS011;26301;42.832;23.918;2022-09-09T10:22:25;11.98;;;4.10;;
40591;SDS011;26301;42.832;23.918;2022-09-09T10:36:51;6.78;;;3.17;;
40591;SDS011;26301;42.832;23.918;2022-09-09T10:39:30;8.98;;;3.90;;
40591;SDS011;26301;42.832;23.918;2022-09-09T10:42:06;11.38;;;3.92;;
40591;SDS011;26301;42.832;23.918;2022-09-09T10:52:55;7.13;;;3.40;;
40591;SDS011;26301;42.832;23.918;2022-09-09T10:55:48;9.98;;;3.50;;
40591;SDS011;26301;42.832;23.918;2022-09-09T10:58:23;7.35;;;3.70;;
40591;SDS011;26301;42.832;23.918;2022-09-09T11:00:59;8.18;;;3.28;;
40591;SDS011;26301;42.832;23.918;2022-09-09T11:03:35;4.43;;;2.80;;
40591;SDS011;26301;42.832;23.918;2022-09-09T11:06:05;9.93;;;4.22;;
40591;SDS011;26301;42.832;23.918;2022-09-09T11:08:38;8.18;;;3.50;;
40591;SDS011;26301;42.832;23.918;2022-09-09T11:11:19;10.23;;;3.63;;
40591;SDS011;26301;42.832;23.918;2022-09-09T11:16:24;6.13;;;3.65;;
40591;SDS011;26301;42.832;23.918;2022-09-09T11:19:24;9.45;;;3.83;;
40591;SDS011;26301;42.832;23.918;2022-09-09T11:25:17;8.75;;;3.75;;
40591;SDS011;26301;42.832;23.918;2022-09-09T11:27:54;6.65;;;3.60;;
40591;SDS011;26301;42.832;23.918;2022-09-09T11:30:36;6.57;;;3.78;;
40591;SDS011;26301;42.832;23.918;2022-09-09T11:39:17;5.60;;;3.72;;
40591;SDS011;26301;42.832;23.918;2022-09-09T11:44:52;4.50;;;3.70;;
40591;SDS011;26301;42.832;23.918;2022-09-09T11:47:27;6.63;;;3.78;;
40591;SDS011;26301;42.832;23.918;2022-09-09T11:50:24;6.15;;;3.50;;
40591;SDS011;26301;42.832;23.918;2022-09-09T11:55:39;9.68;;;3.63;;
40591;SDS011;26301;42.832;23.918;2022-09-09T11:58:06;11.60;;;3.65;;
40591;SDS011;26301;42.832;23.918;2022-09-09T12:10:33;4.95;;;3.80;;
40591;SDS011;26301;42.832;23.918;2022-09-09T12:13:34;5.82;;;3.40;;
40591;SDS011;26301;42.832;23.918;2022-09-09T12:18:33;8.63;;;3.45;;
40591;SDS011;26301;42.832;23.918;2022-09-09T12:21:31;7.50;;;3.50;;
40591;SDS011;26301;42.832;23.918;2022-09-09T12:24:26;5.38;;;3.42;;
40591;SDS011;26301;42.832;23.918;2022-09-09T12:32:38;7.45;;;3.80;;
40591;SDS011;26301;42.832;23.918;2022-09-09T12:38:00;4.20;;;2.97;;
40591;SDS011;26301;42.832;23.918;2022-09-09T12:40:31;10.77;;;3.72;;
40591;SDS011;26301;42.832;23.918;2022-09-09T12:43:19;5.88;;;3.58;;
40591;SDS011;26301;42.832;23.918;2022-09-09T12:45:48;6.22;;;3.47;;
40591;SDS011;26301;42.832;23.918;2022-09-09T12:48:27;6.10;;;3.60;;
40591;SDS011;26301;42.832;23.918;2022-09-09T12:51:28;6.20;;;3.47;;
40591;SDS011;26301;42.832;23.918;2022-09-09T12:53:58;5.60;;;3.50;;
40591;SDS011;26301;42.832;23.918;2022-09-09T12:56:33;8.70;;;3.78;;
40591;SDS011;26301;42.832;23.918;2022-09-09T12:59:01;8.07;;;3.60;;
40591;SDS011;26301;42.832;23.918;2022-09-09T13:01:31;11.35;;;3.47;;
40591;SDS011;26301;42.832;23.918;2022-09-09T13:04:01;8.52;;;3.50;;
40591;SDS011;26301;42.832;23.918;2022-09-09T13:06:30;6.22;;;3.28;;
40591;SDS011;26301;42.832;23.918;2022-09-09T13:09:01;8.63;;;4.00;;
40591;SDS011;26301;42.832;23.918;2022-09-09T13:11:35;4.83;;;3.13;;
40591;SDS011;26301;42.832;23.918;2022-09-09T13:14:05;6.28;;;3.10;;
40591;SDS011;26301;42.832;23.918;2022-09-09T13:16:33;6.13;;;3.20;;
40591;SDS011;26301;42.832;23.918;2022-09-09T13:19:07;5.38;;;3.33;;
40591;SDS011;26301;42.832;23.918;2022-09-09T13:21:43;8.95;;;3.53;;
40591;SDS011;26301;42.832;23.918;2022-09-09T13:24:27;6.45;;;3.53;;
40591;SDS011;26301;42.832;23.918;2022-09-09T13:26:55;7.10;;;3.80;;
40591;SDS011;26301;42.832;23.918;2022-09-09T13:29:27;5.50;;;3.90;;
40591;SDS011;26301;42.832;23.918;2022-09-09T13:32:03;7.40;;;3.92;;
40591;SDS011;26301;42.832;23.918;2022-09-09T13:34:32;5.25;;;3.50;;
40591;SDS011;26301;42.832;23.918;2022-09-09T13:37:07;5.38;;;3.08;;
40591;SDS011;26301;42.832;23.918;2022-09-09T13:40:03;9.77;;;3.97;;
40591;SDS011;26301;42.832;23.918;2022-09-09T13:42:34;5.85;;;3.38;;
40591;SDS011;26301;42.832;23.918;2022-09-09T13:45:18;8.32;;;3.92;;
40591;SDS011;26301;42.832;23.918;2022-09-09T13:47:45;6.43;;;3.35;;
40591;SDS011;26301;42.832;23.918;2022-09-09T13:50:28;7.15;;;3.50;;
40591;SDS011;26301;42.832;23.918;2022-09-09T13:52:55;5.25;;;3.40;;
40591;SDS011;26301;42.832;23.918;2022-09-09T13:55:26;7.78;;;3.40;;
40591;SDS011;26301;42.832;23.918;2022-09-09T13:58:01;4.57;;;3.20;;
40591;SDS011;26301;42.832;23.918;2022-09-09T14:00:30;5.50;;;3.30;;
40591;SDS011;26301;42.832;23.918;2022-09-09T14:02:57;5.45;;;3.10;;
40591;SDS011;26301;42.832;23.918;2022-09-09T14:05:26;6.47;;;3.20;;
40591;SDS011;26301;42.832;23.918;2022-09-09T14:07:52;6.80;;;3.90;;
40591;SDS011;26301;42.832;23.918;2022-09-09T14:10:19;4.13;;;3.03;;
40591;SDS011;26301;42.832;23.918;2022-09-09T14:12:46;4.82;;;3.67;;
40591;SDS011;26301;42.832;23.918;2022-09-09T14:15:12;7.18;;;3.65;;
40591;SDS011;26301;42.832;23.918;2022-09-09T14:17:39;6.80;;;3.25;;
40591;SDS011;26301;42.832;23.918;2022-09-09T14:20:05;5.15;;;3.15;;
40591;SDS011;26301;42.832;23.918;2022-09-09T14:22:34;7.13;;;3.50;;
40591;SDS011;26301;42.832;23.918;2022-09-09T14:25:02;5.95;;;3.42;;
40591;SDS011;26301;42.832;23.918;2022-09-09T14:27:30;5.97;;;3.83;;
40591;SDS011;26301;42.832;23.918;2022-09-09T14:29:59;9.77;;;3.88;;
40591;SDS011;26301;42.832;23.918;2022-09-09T14:32:26;5.93;;;3.63;;
40591;SDS011;26301;42.832;23.918;2022-09-09T14:34:52;8.02;;;3.28;;
40591;SDS011;26301;42.832;23.918;2022-09-09T14:37:18;8.70;;;3.60;;
40591;SDS011;26301;42.832;23.918;2022-09-09T14:39:45;6.95;;;3.53;;
40591;SDS011;26301;42.832;23.918;2022-09-09T14:42:13;9.35;;;3.17;;
40591;SDS011;26301;42.832;23.918;2022-09-09T14:44:39;5.82;;;3.80;;
40591;SDS011;26301;42.832;23.918;2022-09-09T14:47:05;6.80;;;3.78;;
40591;SDS011;26301;42.832;23.918;2022-09-09T14:49:33;7.18;;;3.28;;
40591;SDS011;26301;42.832;23.918;2022-09-09T14:52:01;5.75;;;2.97;;
40591;SDS011;26301;42.832;23.918;2022-09-09T14:54:27;6.50;;;3.58;;
40591;SDS011;26301;42.832;23.918;2022-09-09T14:56:53;5.72;;;3.30;;
40591;SDS011;26301;42.832;23.918;2022-09-09T14:59:19;7.82;;;3.78;;
40591;SDS011;26301;42.832;23.918;2022-09-09T15:01:45;7.20;;;3.75;;
40591;SDS011;26301;42.832;23.918;2022-09-09T15:04:11;4.85;;;3.10;;
40591;SDS011;26301;42.832;23.918;2022-09-09T15:06:39;6.82;;;3.40;;
40591;SDS011;26301;42.832;23.918;2022-09-09T15:09:07;9.70;;;3.45;;
40591;SDS011;26301;42.832;23.918;2022-09-09T15:11:34;8.50;;;3.45;;
40591;SDS011;26301;42.832;23.918;2022-09-09T15:14:07;5.43;;;3.30;;
40591;SDS011;26301;42.832;23.918;2022-09-09T15:16:35;7.65;;;3.47;;
40591;SDS011;26301;42.832;23.918;2022-09-09T15:19:06;9.23;;;3.63;;
40591;SDS011;26301;42.832;23.918;2022-09-09T15:21:33;6.47;;;3.92;;
40591;SDS011;26301;42.832;23.918;2022-09-09T15:24:00;9.57;;;3.30;;
40591;SDS011;26301;42.832;23.918;2022-09-09T15:26:27;8.15;;;2.97;;
40591;SDS011;26301;42.832;23.918;2022-09-09T15:28:54;9.85;;;3.80;;
40591;SDS011;26301;42.832;23.918;2022-09-09T15:31:20;8.43;;;3.90;;
40591;SDS011;26301;42.832;23.918;2022-09-09T15:33:52;9.13;;;3.22;;
40591;SDS011;26301;42.832;23.918;2022-09-09T15:36:23;5.10;;;3.33;;
40591;SDS011;26301;42.832;23.918;2022-09-09T15:38:50;10.70;;;3.50;;
40591;SDS011;26301;42.832;23.918;2022-09-09T15:41:17;8.82;;;3.42;;
40591;SDS011;26301;42.832;23.918;2022-09-09T15:43:44;5.55;;;3.53;;
40591;SDS011;26301;42.832;23.918;2022-09-09T15:48:46;7.05;;;3.70;;
40591;SDS011;26301;42.832;23.918;2022-09-09T15:51:11;5.35;;;3.67;;
40591;SDS011;26301;42.832;23.918;2022-09-09T15:53:38;4.95;;;3.38;;
40591;SDS011;26301;42.832;23.918;2022-09-09T15:56:07;7.07;;;3.38;;
40591;SDS011;26301;42.832;23.918;2022-09-09T15:58:34;8.00;;;3.63;;
40591;SDS011;26301;42.832;23.918;2022-09-09T16:01:07;5.88;;;3.63;;
40591;SDS011;26301;42.832;23.918;2022-09-09T16:03:34;7.45;;;3.60;;
40591;SDS011;26301;42.832;23.918;2022-09-09T16:06:02;6.55;;;3.75;;
40591;SDS011;26301;42.832;23.918;2022-09-09T16:08:33;8.85;;;3.58;;
40591;SDS011;26301;42.832;23.918;2022-09-09T16:11:07;7.93;;;4.28;;
40591;SDS011;26301;42.832;23.918;2022-09-09T16:13:45;9.10;;;3.40;;
40591;SDS011;26301;42.832;23.918;2022-09-09T16:16:13;5.47;;;3.70;;
40591;SDS011;26301;42.832;23.918;2022-09-09T16:18:42;5.93;;;3.60;;
40591;SDS011;26301;42.832;23.918;2022-09-09T16:21:29;4.90;;;3.20;;
40591;SDS011;26301;42.832;23.918;2022-09-09T16:23:57;19.33;;;4.13;;
40591;SDS011;26301;42.832;23.918;2022-09-09T16:26:25;6.57;;;3.53;;
40591;SDS011;26301;42.832;23.918;2022-09-09T16:28:51;6.97;;;3.78;;
40591;SDS011;26301;42.832;23.918;2022-09-09T16:31:20;6.38;;;3.78;;
40591;SDS011;26301;42.832;23.918;2022-09-09T16:33:49;7.45;;;4.00;;
40591;SDS011;26301;42.832;23.918;2022-09-09T16:36:20;7.72;;;3.90;;
40591;SDS011;26301;42.832;23.918;2022-09-09T16:38:48;13.48;;;4.22;;
40591;SDS011;26301;42.832;23.918;2022-09-09T16:41:16;10.23;;;4.68;;
40591;SDS011;26301;42.832;23.918;2022-09-09T16:43:44;8.15;;;4.85;;
40591;SDS011;26301;42.832;23.918;2022-09-09T16:46:13;9.70;;;4.10;;
40591;SDS011;26301;42.832;23.918;2022-09-09T16:48:42;8.32;;;4.65;;
40591;SDS011;26301;42.832;23.918;2022-09-09T16:51:14;8.65;;;4.63;;
40591;SDS011;26301;42.832;23.918;2022-09-09T16:53:43;14.15;;;5.13;;
40591;SDS011;26301;42.832;23.918;2022-09-09T16:56:14;8.23;;;4.50;;
40591;SDS011;26301;42.832;23.918;2022-09-09T16:58:42;8.02;;;4.82;;
40591;SDS011;26301;42.832;23.918;2022-09-09T17:01:08;7.28;;;4.53;;
40591;SDS011;26301;42.832;23.918;2022-09-09T17:03:39;8.75;;;4.82;;
40591;SDS011;26301;42.832;23.918;2022-09-09T17:06:10;8.93;;;5.18;;
40591;SDS011;26301;42.832;23.918;2022-09-09T17:08:37;9.10;;;5.38;;
40591;SDS011;26301;42.832;23.918;2022-09-09T17:11:13;10.55;;;5.25;;
40591;SDS011;26301;42.832;23.918;2022-09-09T17:13:41;7.65;;;4.50;;
40591;SDS011;26301;42.832;23.918;2022-09-09T17:16:08;12.07;;;4.85;;
40591;SDS011;26301;42.832;23.918;2022-09-09T17:18:34;10.90;;;5.40;;
40591;SDS011;26301;42.832;23.918;2022-09-09T17:21:05;11.70;;;5.20;;
40591;SDS011;26301;42.832;23.918;2022-09-09T17:23:38;9.77;;;5.55;;
40591;SDS011;26301;42.832;23.918;2022-09-09T17:26:07;12.02;;;5.53;;